Time;durP1;ratioP1;P1;durP2;ratioP2;P2;SDS_P1;SDS_P2;PMS_P1;PMS_P2;Temp;Humidity;BMP_temperature;BMP_pressure;BME280_temperature;BME280_humidity;BME280_pressure;Samples;Min_cycle;Max_cycle;Signal;HPM_P1;HPM_P2
2023/06/20 00:00:37;;;;;;;7.35;3.05;;;23.30;99.90;;;;;;4974442;28;20549;-67
2023/06/20 00:03:03;;;;;;;9.40;3.60;;;23.30;99.90;;;;;;4974437;28;20125;-67
2023/06/20 00:05:29;;;;;;;6.43;3.33;;;23.30;99.90;;;;;;4974546;28;20042;-68
2023/06/20 00:07:54;;;;;;;6.78;3.72;;;23.40;99.90;;;;;;4974818;28;20030;-67
2023/06/20 00:10:21;;;;;;;7.90;3.53;;;23.40;99.90;;;;;;4974379;28;20023;-67
2023/06/20 00:12:47;;;;;;;5.13;3.25;;;23.30;99.90;;;;;;4973251;28;20367;-68
2023/06/20 00:15:12;;;;;;;5.22;3.00;;;23.20;99.90;;;;;;4974206;28;20080;-67
2023/06/20 00:17:38;;;;;;;9.57;3.47;;;23.10;99.90;;;;;;4974312;28;20035;-68
2023/06/20 00:20:07;;;;;;;7.13;3.65;;;23.10;99.90;;;;;;4972630;28;20038;-68
2023/06/20 00:22:34;;;;;;;7.43;3.33;;;23.10;99.90;;;;;;4974290;28;20058;-68
2023/06/20 00:25:04;;;;;;;5.78;3.75;;;22.80;99.90;;;;;;4974089;28;20117;-68
2023/06/20 00:27:30;;;;;;;7.55;4.20;;;22.70;99.90;;;;;;4973027;28;20417;-68
2023/06/20 00:29:56;;;;;;;6.00;4.35;;;22.50;99.90;;;;;;4972694;28;20039;-69
2023/06/20 00:32:22;;;;;;;11.25;5.43;;;22.30;99.90;;;;;;4974114;28;20360;-69
2023/06/20 00:34:48;;;;;;;12.80;4.93;;;22.10;99.90;;;;;;4973172;28;20035;-68
2023/06/20 00:37:14;;;;;;;10.05;4.40;;;22.00;99.90;;;;;;4973002;28;20027;-68
2023/06/20 00:39:40;;;;;;;9.43;4.55;;;21.90;99.90;;;;;;4972479;28;20542;-68
2023/06/20 00:42:20;;;;;;;14.52;4.63;;;21.80;99.90;;;;;;4973842;28;20039;-68
2023/06/20 00:44:46;;;;;;;11.93;4.90;;;21.90;99.90;;;;;;4974234;28;20030;-68
2023/06/20 00:47:18;;;;;;;11.48;5.38;;;21.90;99.90;;;;;;4973860;28;20077;-68
2023/06/20 00:49:47;;;;;;;12.30;4.95;;;21.80;99.90;;;;;;4972363;28;20041;-68
2023/06/20 00:52:20;;;;;;;13.20;6.68;;;21.80;99.90;;;;;;4972640;28;20422;-68
2023/06/20 00:54:48;;;;;;;10.55;5.55;;;21.80;99.90;;;;;;4972779;28;20038;-68
2023/06/20 00:57:19;;;;;;;11.35;6.55;;;21.80;99.90;;;;;;4972720;28;20023;-68
2023/06/20 00:59:50;;;;;;;14.40;5.75;;;21.70;99.90;;;;;;4972444;28;20030;-68
2023/06/20 01:02:16;;;;;;;;;;;21.70;99.90;;;;;;4972578;28;20851;-68
2023/06/20 01:04:45;;;;;;;11.00;4.88;;;21.60;99.90;;;;;;4968173;28;19985;-68
2023/06/20 01:07:37;;;;;;;10.85;5.25;;;21.70;99.90;;;;;;4965755;28;20441;-68
2023/06/20 01:10:13;;;;;;;11.85;5.30;;;21.70;99.90;;;;;;4955619;28;20065;-68
2023/06/20 01:13:34;;;;;;;8.32;5.22;;;21.70;99.90;;;;;;4952779;28;20114;-68
2023/06/20 01:16:20;;;;;;;11.57;6.20;;;21.60;99.90;;;;;;4966279;28;20038;-68
2023/06/20 01:19:08;;;;;;;10.07;6.03;;;21.40;99.90;;;;;;4955674;28;20545;-66
2023/06/20 01:21:46;;;;;;;13.07;6.25;;;21.20;99.90;;;;;;4972829;28;20034;-68
2023/06/20 01:24:20;;;;;;;12.48;5.93;;;21.20;99.90;;;;;;4971980;28;20035;-67
2023/06/20 01:26:57;;;;;;;11.52;7.00;;;21.20;99.90;;;;;;4973131;28;20031;-68
2023/06/20 01:29:45;;;;;;;10.07;5.68;;;21.10;99.90;;;;;;4971616;28;20663;-68
2023/06/20 01:32:17;;;;;;;11.13;6.43;;;21.20;99.90;;;;;;4971791;28;20101;-67
2023/06/20 01:35:08;;;;;;;13.07;6.25;;;21.20;99.90;;;;;;4971630;28;20720;-67
2023/06/20 01:37:38;;;;;;;11.98;6.53;;;21.10;99.90;;;;;;4973016;28;20037;-68
2023/06/20 01:40:08;;;;;;;13.35;6.10;;;21.10;99.90;;;;;;4971298;28;20078;-67
2023/06/20 01:42:35;;;;;;;14.73;6.40;;;21.10;99.90;;;;;;4972777;28;20034;-67
2023/06/20 01:45:04;;;;;;;11.98;6.65;;;21.10;99.90;;;;;;4971845;28;20031;-67
2023/06/20 01:47:35;;;;;;;12.23;6.45;;;21.20;99.90;;;;;;4972852;28;20029;-68
2023/06/20 01:50:03;;;;;;;9.57;5.72;;;21.00;99.90;;;;;;4971279;28;20073;-67
2023/06/20 01:52:30;;;;;;;8.45;5.03;;;21.00;99.90;;;;;;4955414;28;20039;-67
2023/06/20 01:54:57;;;;;;;7.78;4.70;;;20.90;99.90;;;;;;4972760;28;20026;-67
2023/06/20 01:57:24;;;;;;;14.05;5.93;;;20.90;99.90;;;;;;4971378;28;20490;-67
2023/06/20 01:59:50;;;;;;;11.90;5.90;;;20.90;99.90;;;;;;4972310;28;20038;-67
2023/06/20 02:02:19;;;;;;;8.35;4.35;;;20.90;99.90;;;;;;4971110;28;20129;-67
2023/06/20 02:04:45;;;;;;;8.68;4.28;;;20.90;99.90;;;;;;4970676;28;20031;-68
2023/06/20 02:07:12;;;;;;;8.68;3.92;;;20.90;99.90;;;;;;4971213;28;20486;-68
2023/06/20 02:09:39;;;;;;;8.75;4.18;;;20.80;99.90;;;;;;4970818;28;20047;-68
2023/06/20 02:12:09;;;;;;;7.38;4.38;;;20.80;99.90;;;;;;4970865;28;20061;-67
2023/06/20 02:14:35;;;;;;;6.28;3.88;;;20.90;99.90;;;;;;4970929;28;20038;-68
2023/06/20 02:17:02;;;;;;;9.65;3.75;;;20.80;99.90;;;;;;4971286;28;20034;-67
2023/06/20 02:19:28;;;;;;;6.90;3.70;;;20.80;99.90;;;;;;4954862;28;20030;-67
2023/06/20 02:21:56;;;;;;;5.25;3.45;;;20.80;99.90;;;;;;4972150;28;20035;-67
2023/06/20 02:24:26;;;;;;;11.32;4.15;;;20.90;99.90;;;;;;4971066;28;20113;-69
2023/06/20 02:26:54;;;;;;;10.55;3.88;;;21.00;99.90;;;;;;4971293;28;20443;-68
2023/06/20 02:29:24;;;;;;;5.30;3.10;;;20.90;99.90;;;;;;4971044;28;20035;-68
2023/06/20 02:31:50;;;;;;;4.82;2.88;;;20.90;99.90;;;;;;4970886;28;20037;-68
2023/06/20 02:34:20;;;;;;;12.45;3.17;;;20.90;99.90;;;;;;4970939;28;20037;-68
2023/06/20 02:36:47;;;;;;;9.57;3.17;;;20.80;99.90;;;;;;4970681;28;20387;-68
2023/06/20 02:39:13;;;;;;;4.35;2.45;;;20.80;99.90;;;;;;4954854;28;20093;-69
2023/06/20 02:41:43;;;;;;;5.57;3.03;;;20.80;99.90;;;;;;4971719;28;20133;-68
2023/06/20 02:44:09;;;;;;;6.35;3.22;;;20.80;99.90;;;;;;4970923;28;20031;-69
2023/06/20 02:47:06;;;;;;;6.95;3.00;;;20.70;99.90;;;;;;4975121;28;20114;-68
2023/06/20 02:50:14;;;;;;;12.15;3.50;;;20.60;99.90;;;;;;4975481;28;20030;-68
2023/06/20 02:52:50;;;;;;;6.55;3.28;;;20.60;99.90;;;;;;4975864;28;20031;-68
2023/06/20 02:55:34;;;;;;;5.47;2.78;;;20.50;99.90;;;;;;4974793;28;20410;-68
2023/06/20 02:58:05;;;;;;;5.75;3.08;;;20.50;99.90;;;;;;4974650;28;20026;-69
2023/06/20 03:00:34;;;;;;;5.75;2.95;;;20.50;99.90;;;;;;4975571;28;20061;-69
2023/06/20 03:03:18;;;;;;;5.35;3.60;;;20.50;99.90;;;;;;4995556;23;20039;-72
2023/06/20 03:05:44;;;;;;;10.35;3.08;;;20.60;99.90;;;;;;4974979;28;20041;-73
2023/06/20 03:08:19;;;;;;;7.47;3.38;;;20.50;99.90;;;;;;4977376;28;20123;-72
2023/06/20 03:10:47;;;;;;;10.18;4.15;;;20.40;99.90;;;;;;4977755;28;20105;-72
2023/06/20 03:13:14;;;;;;;8.07;3.58;;;20.20;99.90;;;;;;4977593;28;20027;-72
2023/06/20 03:15:40;;;;;;;6.85;3.30;;;20.30;99.90;;;;;;4974274;28;20078;-73
2023/06/20 03:18:07;;;;;;;7.22;3.60;;;20.30;99.90;;;;;;4958202;28;20030;-72
2023/06/20 03:20:34;;;;;;;6.22;3.90;;;20.20;99.90;;;;;;4977138;28;20034;-73
2023/06/20 03:23:00;;;;;;;13.60;4.20;;;20.30;99.90;;;;;;4977023;28;20062;-72
2023/06/20 03:25:25;;;;;;;9.50;4.45;;;20.30;99.90;;;;;;4994715;28;20034;-73
2023/06/20 03:27:51;;;;;;;7.20;4.03;;;20.30;99.90;;;;;;4977187;28;20072;-72
2023/06/20 03:30:17;;;;;;;7.15;4.40;;;20.40;99.90;;;;;;4994463;28;20121;-72
2023/06/20 03:32:43;;;;;;;6.28;4.20;;;20.40;99.90;;;;;;4994159;28;20105;-72
2023/06/20 03:35:08;;;;;;;12.27;4.97;;;20.40;99.90;;;;;;4977241;28;20496;-72
2023/06/20 03:37:34;;;;;;;6.75;4.03;;;20.40;99.90;;;;;;4994408;28;20553;-72
2023/06/20 03:40:00;;;;;;;7.18;4.22;;;20.30;99.90;;;;;;4993955;28;20038;-72
2023/06/20 03:42:26;;;;;;;10.43;5.13;;;20.40;99.90;;;;;;4994268;28;20149;-72
2023/06/20 03:44:51;;;;;;;12.43;6.53;;;20.30;99.90;;;;;;4994281;28;20065;-72
2023/06/20 03:47:18;;;;;;;11.18;5.65;;;20.30;99.90;;;;;;4994429;28;20441;-72
2023/06/20 03:49:43;;;;;;;8.32;4.70;;;20.30;99.90;;;;;;4993791;28;20106;-72
2023/06/20 03:52:09;;;;;;;7.57;4.35;;;20.30;99.90;;;;;;4994268;28;20022;-72
2023/06/20 03:54:37;;;;;;;10.07;5.35;;;20.30;99.90;;;;;;4994202;28;20478;-72
2023/06/20 03:57:03;;;;;;;9.38;5.15;;;20.40;99.90;;;;;;4993643;28;20054;-72
2023/06/20 03:59:29;;;;;;;9.88;5.15;;;20.40;99.90;;;;;;4993729;28;20030;-73
2023/06/20 04:01:55;;;;;;;7.13;4.70;;;20.40;99.90;;;;;;4993684;28;20084;-72
2023/06/20 04:04:21;;;;;;;10.10;5.45;;;20.40;99.90;;;;;;4993669;28;20161;-72
2023/06/20 04:06:49;;;;;;;17.45;6.53;;;20.40;99.90;;;;;;4994119;28;20054;-72
2023/06/20 04:09:19;;;;;;;9.07;4.80;;;20.50;99.90;;;;;;4993629;28;20034;-72
2023/06/20 04:11:45;;;;;;;11.18;5.72;;;20.50;99.90;;;;;;4993599;28;20030;-71
2023/06/20 04:14:11;;;;;;;13.85;5.60;;;20.40;99.90;;;;;;4993826;28;20030;-72
2023/06/20 04:16:37;;;;;;;9.30;5.05;;;20.40;99.90;;;;;;4976342;28;20033;-72
2023/06/20 04:19:03;;;;;;;9.30;5.13;;;20.30;99.90;;;;;;4976340;28;20026;-72
2023/06/20 04:21:31;;;;;;;13.18;5.75;;;20.30;99.90;;;;;;4975948;28;20533;-72
2023/06/20 04:23:57;;;;;;;10.57;5.50;;;20.30;99.90;;;;;;4993518;28;20116;-72
2023/06/20 04:26:24;;;;;;;14.00;5.50;;;20.40;99.90;;;;;;4993491;28;20026;-72
2023/06/20 04:28:50;;;;;;;12.18;5.38;;;20.30;99.90;;;;;;4960175;28;20034;-72
2023/06/20 04:31:15;;;;;;;10.32;5.70;;;20.30;99.90;;;;;;4975780;28;20037;-71
2023/06/20 04:33:43;;;;;;;9.02;5.43;;;20.40;99.90;;;;;;4976077;28;20039;-72
2023/06/20 04:36:13;;;;;;;8.60;5.32;;;20.40;99.90;;;;;;4976096;28;20422;-72
2023/06/20 04:38:43;;;;;;;12.40;5.70;;;20.40;99.90;;;;;;4993171;28;20540;-72
2023/06/20 04:41:12;;;;;;;8.35;4.53;;;20.50;99.90;;;;;;4959814;28;20041;-72
2023/06/20 04:43:37;;;;;;;15.27;7.50;;;20.70;99.90;;;;;;4993343;28;20034;-72
2023/06/20 04:46:04;;;;;;;12.00;5.75;;;20.70;99.90;;;;;;4993183;28;20084;-72
2023/06/20 04:48:37;;;;;;;12.43;6.22;;;20.80;99.90;;;;;;4992955;28;20393;-72
2023/06/20 04:51:07;;;;;;;13.35;5.88;;;20.70;99.90;;;;;;4992650;28;20113;-72
2023/06/20 04:53:34;;;;;;;8.73;5.72;;;20.80;99.90;;;;;;4992798;28;20027;-72
2023/06/20 04:55:59;;;;;;;9.95;5.78;;;20.70;99.90;;;;;;4992891;28;20026;-71
2023/06/20 04:58:28;;;;;;;9.38;5.35;;;20.60;99.90;;;;;;4975603;28;20389;-72
2023/06/20 05:01:03;;;;;;;10.05;5.88;;;20.70;99.90;;;;;;4992562;28;20437;-71
2023/06/20 05:03:29;;;;;;;13.48;6.05;;;20.70;99.90;;;;;;4992694;28;20501;-71
2023/06/20 05:05:54;;;;;;;11.63;5.72;;;20.70;99.90;;;;;;4975481;28;20038;-71
2023/06/20 05:08:20;;;;;;;11.00;5.93;;;20.60;99.90;;;;;;4992088;28;20412;-71
2023/06/20 05:10:46;;;;;;;12.63;6.22;;;20.80;99.90;;;;;;4992384;28;20493;-71
2023/06/20 05:13:12;;;;;;;12.45;5.43;;;20.80;99.90;;;;;;4992511;28;20022;-72
2023/06/20 05:15:37;;;;;;;11.15;6.07;;;20.90;99.90;;;;;;4971892;28;20142;-72
2023/06/20 05:18:03;;;;;;;8.48;5.40;;;20.80;99.90;;;;;;4973343;28;20034;-72
2023/06/20 05:20:29;;;;;;;13.00;5.28;;;20.90;99.90;;;;;;4971815;28;20026;-72
2023/06/20 05:22:55;;;;;;;10.48;5.88;;;20.90;99.90;;;;;;4973009;28;20031;-72
2023/06/20 05:25:20;;;;;;;11.57;5.70;;;21.00;99.90;;;;;;4972884;28;20034;-71
2023/06/20 05:27:49;;;;;;;12.50;5.65;;;21.10;99.90;;;;;;4973173;28;20030;-72
2023/06/20 05:30:15;;;;;;;8.85;5.38;;;21.10;99.90;;;;;;4972622;28;20027;-72
2023/06/20 05:32:40;;;;;;;10.25;5.50;;;21.10;99.90;;;;;;4972922;28;20037;-72
2023/06/20 05:35:07;;;;;;;10.40;4.95;;;21.20;99.90;;;;;;4972721;28;20046;-71
2023/06/20 05:37:34;;;;;;;11.63;5.72;;;21.20;99.90;;;;;;4982367;28;20081;-72
2023/06/20 05:40:00;;;;;;;9.48;5.45;;;21.20;99.90;;;;;;4974331;28;20061;-71
2023/06/20 05:42:26;;;;;;;7.63;4.03;;;21.40;99.90;;;;;;4992329;28;20078;-71
2023/06/20 05:44:51;;;;;;;7.90;4.10;;;21.50;99.90;;;;;;4992055;28;20030;-72
2023/06/20 05:47:17;;;;;;;11.45;4.50;;;21.60;99.90;;;;;;4992072;28;20038;-72
2023/06/20 05:49:47;;;;;;;10.48;5.07;;;21.50;99.90;;;;;;4991727;28;20130;-73
2023/06/20 05:52:14;;;;;;;7.63;4.60;;;21.60;99.90;;;;;;4974889;28;20019;-72
2023/06/20 05:54:42;;;;;;;11.82;4.53;;;21.60;99.90;;;;;;4974760;28;20022;-73
2023/06/20 05:57:08;;;;;;;7.95;4.80;;;21.60;99.90;;;;;;4992043;28;20022;-72
2023/06/20 05:59:34;;;;;;;10.07;4.93;;;21.70;99.90;;;;;;4991423;28;20073;-71
2023/06/20 06:02:00;;;;;;;9.60;4.53;;;21.60;99.90;;;;;;4991627;28;20045;-71
2023/06/20 06:04:26;;;;;;;7.32;4.65;;;21.70;99.90;;;;;;4991927;28;20026;-72
2023/06/20 06:06:52;;;;;;;9.68;5.25;;;21.80;99.90;;;;;;4991851;28;20042;-72
2023/06/20 06:09:19;;;;;;;8.98;4.93;;;21.90;99.90;;;;;;4974509;28;20038;-73
2023/06/20 06:11:45;;;;;;;11.02;4.78;;;22.00;99.90;;;;;;4991269;28;20379;-72
2023/06/20 06:14:12;;;;;;;9.35;4.75;;;22.10;99.90;;;;;;4991868;28;20030;-73
2023/06/20 06:16:38;;;;;;;9.40;5.07;;;22.10;99.90;;;;;;4974519;28;20069;-72
2023/06/20 06:19:04;;;;;;;11.80;4.97;;;22.30;99.90;;;;;;4991702;28;20058;-73
2023/06/20 06:21:30;;;;;;;7.18;4.60;;;22.40;99.90;;;;;;4991105;28;20030;-72
2023/06/20 06:23:56;;;;;;;8.15;4.40;;;22.50;99.90;;;;;;4991521;28;20030;-73
2023/06/20 06:26:22;;;;;;;9.63;4.82;;;22.60;99.90;;;;;;4991519;28;20453;-73
2023/06/20 06:28:48;;;;;;;7.13;4.38;;;22.60;99.90;;;;;;4991532;28;20046;-71
2023/06/20 06:31:27;;;;;;;8.93;4.65;;;22.70;99.90;;;;;;4973591;28;20482;-72
2023/06/20 06:33:56;;;;;;;6.40;4.18;;;22.70;99.90;;;;;;4975514;28;20053;-72
2023/06/20 06:36:24;;;;;;;9.05;4.90;;;22.70;99.90;;;;;;4974359;28;20367;-73
2023/06/20 06:38:51;;;;;;;7.82;4.68;;;22.70;99.90;;;;;;4991430;28;20364;-73
2023/06/20 06:41:20;;;;;;;6.32;3.90;;;22.80;99.90;;;;;;4990950;28;20030;-73
2023/06/20 06:43:47;;;;;;;9.65;4.53;;;22.80;99.90;;;;;;4973783;28;20077;-72
2023/06/20 06:46:12;;;;;;;7.78;4.57;;;23.00;99.90;;;;;;4974058;28;20478;-72
2023/06/20 06:48:38;;;;;;;9.18;4.70;;;23.10;99.90;;;;;;4973812;28;20049;-73
2023/06/20 06:51:04;;;;;;;8.52;4.82;;;23.10;99.90;;;;;;4990856;28;20088;-73
2023/06/20 06:53:30;;;;;;;11.85;4.35;;;23.20;99.90;;;;;;4974013;28;20078;-73
2023/06/20 06:55:55;;;;;;;10.32;4.72;;;23.10;99.90;;;;;;4991062;28;20030;-73
2023/06/20 06:58:21;;;;;;;8.05;5.20;;;23.20;99.90;;;;;;4991317;28;20034;-73
2023/06/20 07:00:47;;;;;;;8.20;4.43;;;23.30;99.90;;;;;;4990855;28;20505;-73
2023/06/20 07:03:15;;;;;;;6.88;4.78;;;23.40;99.90;;;;;;4973721;28;20044;-73
2023/06/20 07:05:41;;;;;;;9.18;4.90;;;23.50;99.90;;;;;;4991129;28;20556;-73
2023/06/20 07:08:07;;;;;;;10.27;5.07;;;23.60;99.90;;;;;;4974114;28;20050;-73
2023/06/20 07:10:32;;;;;;;12.88;5.00;;;23.60;99.90;;;;;;4990644;28;20038;-73
2023/06/20 07:12:58;;;;;;;7.70;4.35;;;23.70;99.90;;;;;;4991147;28;20038;-73
2023/06/20 07:15:24;;;;;;;8.63;4.40;;;23.70;99.90;;;;;;4991178;28;20023;-73
2023/06/20 07:17:50;;;;;;;7.10;3.83;;;23.80;99.90;;;;;;4991213;28;20031;-73
2023/06/20 07:20:17;;;;;;;7.47;4.57;;;23.80;99.90;;;;;;4990849;28;20034;-73
2023/06/20 07:22:45;;;;;;;12.93;4.25;;;23.80;99.90;;;;;;4973497;28;20149;-73
2023/06/20 07:25:11;;;;;;;7.95;4.30;;;23.80;99.90;;;;;;4991271;28;20034;-73
2023/06/20 07:27:37;;;;;;;7.43;4.40;;;23.90;99.90;;;;;;4973755;28;20077;-73
2023/06/20 07:30:04;;;;;;;9.02;4.63;;;23.90;99.90;;;;;;4990580;28;20066;-73
2023/06/20 07:32:30;;;;;;;7.55;4.60;;;24.00;99.90;;;;;;4993568;28;20026;-73
2023/06/20 07:34:55;;;;;;;8.27;4.28;;;24.10;99.90;;;;;;4994766;28;20037;-74
2023/06/20 07:37:21;;;;;;;7.60;3.97;;;24.20;99.90;;;;;;4994539;28;20036;-72
2023/06/20 07:39:48;;;;;;;8.60;4.45;;;24.10;99.90;;;;;;4994725;28;20457;-72
2023/06/20 07:42:13;;;;;;;11.05;4.05;;;24.20;99.90;;;;;;4994421;28;20031;-73
2023/06/20 07:44:39;;;;;;;9.85;4.25;;;24.20;99.90;;;;;;4994464;28;20390;-73
2023/06/20 07:47:06;;;;;;;6.00;3.92;;;24.30;99.90;;;;;;4994329;28;20079;-73
2023/06/20 07:49:31;;;;;;;8.68;4.18;;;24.40;99.90;;;;;;4993944;28;20555;-73
2023/06/20 07:51:57;;;;;;;8.15;4.45;;;24.30;99.90;;;;;;4976615;28;20031;-74
2023/06/20 07:54:23;;;;;;;6.63;4.40;;;24.50;99.90;;;;;;4994089;28;20454;-73
2023/06/20 07:56:49;;;;;;;18.67;4.80;;;24.50;99.90;;;;;;4993987;28;20037;-72
2023/06/20 07:59:15;;;;;;;6.90;4.40;;;24.60;99.90;;;;;;4994056;28;20486;-72
2023/06/20 08:01:40;;;;;;;7.47;3.80;;;24.70;99.90;;;;;;4993652;28;20046;-72
2023/06/20 08:04:06;;;;;;;10.27;4.53;;;24.80;99.90;;;;;;4994092;28;20041;-72
2023/06/20 08:06:32;;;;;;;10.50;4.65;;;24.90;99.90;;;;;;4993849;28;20043;-73
2023/06/20 08:08:58;;;;;;;9.63;5.15;;;25.00;99.90;;;;;;4994000;28;20034;-72
2023/06/20 08:11:24;;;;;;;9.35;4.63;;;25.10;99.90;;;;;;4993366;28;20030;-72
2023/06/20 08:13:50;;;;;;;7.03;4.30;;;25.10;99.90;;;;;;4976257;28;20041;-72
2023/06/20 08:16:16;;;;;;;8.93;4.82;;;25.30;99.90;;;;;;4976329;28;20050;-74
2023/06/20 08:18:42;;;;;;;9.88;4.60;;;25.30;99.90;;;;;;4993818;28;20049;-74
2023/06/20 08:21:08;;;;;;;9.50;4.70;;;25.30;99.90;;;;;;4993316;28;20038;-73
2023/06/20 08:23:34;;;;;;;7.20;4.18;;;25.20;99.90;;;;;;4976105;28;20041;-73
2023/06/20 08:25:59;;;;;;;9.00;4.75;;;25.30;99.90;;;;;;4993796;28;20369;-74
2023/06/20 08:28:25;;;;;;;7.72;4.43;;;25.30;99.90;;;;;;4976290;28;20040;-74
2023/06/20 08:30:52;;;;;;;7.97;4.85;;;25.40;99.90;;;;;;4993220;28;20091;-74
2023/06/20 08:33:22;;;;;;;8.57;4.90;;;25.40;99.90;;;;;;4993305;28;20033;-74
2023/06/20 08:35:48;;;;;;;8.95;4.60;;;25.50;99.90;;;;;;4993522;28;20022;-72
2023/06/20 08:38:14;;;;;;;9.30;5.20;;;25.50;99.90;;;;;;4993553;28;20023;-73
2023/06/20 08:40:40;;;;;;;9.13;5.60;;;25.60;99.90;;;;;;4993296;28;20117;-73
2023/06/20 08:43:06;;;;;;;8.38;4.65;;;25.60;99.90;;;;;;4975900;28;20038;-73
2023/06/20 08:45:35;;;;;;;10.00;5.28;;;25.80;99.90;;;;;;4975968;28;20034;-73
2023/06/20 08:48:01;;;;;;;8.93;4.85;;;25.80;99.90;;;;;;4993257;28;20037;-73
2023/06/20 08:50:27;;;;;;;8.95;4.57;;;25.90;99.90;;;;;;4992950;28;20034;-74
2023/06/20 08:52:57;;;;;;;8.48;4.97;;;26.10;99.90;;;;;;4975704;28;20035;-74
2023/06/20 08:55:23;;;;;;;8.60;4.20;;;25.90;99.90;;;;;;4976310;28;20041;-73
2023/06/20 08:57:51;;;;;;;9.32;4.40;;;26.10;99.90;;;;;;4992893;28;20022;-73
2023/06/20 09:00:22;;;;;;;8.35;4.70;;;26.20;99.90;;;;;;4992768;28;20037;-72
2023/06/20 09:02:48;;;;;;;;;;;26.00;99.90;;;;;;5001098;23;20073;-67
2023/06/20 09:05:14;;;;;;;7.88;4.78;;;26.00;99.90;;;;;;4964536;28;20362;-67
2023/06/20 09:07:41;;;;;;;10.88;4.32;;;26.20;99.90;;;;;;4972087;28;20031;-69
2023/06/20 09:10:10;;;;;;;7.68;4.38;;;26.10;99.90;;;;;;4971817;28;20506;-68
2023/06/20 09:12:50;;;;;;;8.75;4.88;;;26.30;99.90;;;;;;4962940;28;20655;-68
2023/06/20 09:15:25;;;;;;;7.10;4.25;;;26.40;99.90;;;;;;4937053;29;20027;-69
2023/06/20 09:17:56;;;;;;;13.38;5.20;;;26.50;99.90;;;;;;4954020;28;20077;-69
2023/06/20 09:20:27;;;;;;;6.88;4.43;;;26.50;99.90;;;;;;4953961;29;20570;-68
2023/06/20 09:22:53;;;;;;;6.45;4.10;;;26.50;99.90;;;;;;4936707;29;20081;-69
2023/06/20 09:25:22;;;;;;;8.07;4.63;;;26.70;99.90;;;;;;4953550;28;20027;-69
2023/06/20 09:27:49;;;;;;;6.43;3.97;;;26.90;99.90;;;;;;4936780;29;20027;-69
2023/06/20 09:30:14;;;;;;;7.47;3.92;;;26.80;99.90;;;;;;4953495;28;20062;-68
2023/06/20 09:32:42;;;;;;;10.68;5.13;;;26.90;99.90;;;;;;4953632;28;20429;-68
2023/06/20 09:35:09;;;;;;;7.32;4.63;;;27.00;99.90;;;;;;4953699;28;20051;-69
2023/06/20 09:37:49;;;;;;;5.88;3.80;;;26.80;99.90;;;;;;4953834;28;20034;-69
2023/06/20 09:40:18;;;;;;;8.57;4.93;;;26.90;99.90;;;;;;4936321;28;20122;-69
2023/06/20 09:42:46;;;;;;;9.55;4.15;;;27.30;99.90;;;;;;4953366;28;20035;-68
2023/06/20 09:45:14;;;;;;;6.85;4.15;;;27.30;99.90;;;;;;4920552;29;20031;-69
2023/06/20 09:47:42;;;;;;;10.68;4.68;;;27.30;99.90;;;;;;4953241;28;20476;-69
2023/06/20 09:50:16;;;;;;;5.95;3.80;;;27.20;99.90;;;;;;4936215;29;20113;-69
2023/06/20 09:52:54;;;;;;;8.52;4.70;;;27.50;99.90;;;;;;4936594;29;20050;-69
2023/06/20 09:55:23;;;;;;;7.30;4.20;;;27.70;99.90;;;;;;4935832;29;20035;-69
2023/06/20 09:57:54;;;;;;;7.78;4.53;;;27.60;99.90;;;;;;4936161;28;20066;-69
2023/06/20 10:00:23;;;;;;;7.03;4.75;;;27.70;99.90;;;;;;4935693;29;20035;-69
2023/06/20 10:02:52;;;;;;;12.35;4.13;;;27.80;99.90;;;;;;4936057;29;20039;-69
2023/06/20 10:05:19;;;;;;;9.57;4.53;;;27.90;99.90;;;;;;4936164;29;20027;-69
2023/06/20 10:07:49;;;;;;;9.65;4.38;;;27.80;99.90;;;;;;4920345;29;20114;-69
2023/06/20 10:10:17;;;;;;;9.23;4.90;;;27.90;99.90;;;;;;4953430;28;20090;-69
2023/06/20 10:12:46;;;;;;;7.10;3.60;;;27.90;99.90;;;;;;4971797;28;20042;-69
2023/06/20 10:15:14;;;;;;;15.88;3.92;;;28.10;99.90;;;;;;4955076;28;20447;-68
2023/06/20 10:17:47;;;;;;;6.75;3.30;;;28.20;99.90;;;;;;4955238;28;20098;-68
2023/06/20 10:20:34;;;;;;;7.45;4.20;;;28.20;99.90;;;;;;4972168;28;20390;-68
2023/06/20 10:23:10;;;;;;;6.72;4.00;;;28.30;99.90;;;;;;4954952;28;20391;-68
2023/06/20 10:25:52;;;;;;;6.07;3.92;;;28.40;99.90;;;;;;4955279;28;20035;-69
2023/06/20 10:28:22;;;;;;;5.40;3.83;;;28.40;99.90;;;;;;4971984;28;20027;-68
2023/06/20 10:30:52;;;;;;;8.27;3.97;;;28.60;99.90;;;;;;4954877;28;20105;-68
2023/06/20 10:33:28;;;;;;;7.03;3.40;;;28.90;99.90;;;;;;4954516;28;20035;-68
2023/06/20 10:36:05;;;;;;;6.53;3.92;;;29.00;99.40;;;;;;4954773;28;20058;-67
2023/06/20 10:38:34;;;;;;;5.97;3.22;;;28.80;99.00;;;;;;4954689;28;20022;-67
2023/06/20 10:41:26;;;;;;;5.63;3.03;;;29.00;98.10;;;;;;4954398;28;20073;-68
2023/06/20 10:43:59;;;;;;;8.00;3.45;;;29.30;96.40;;;;;;4971636;28;20031;-68
2023/06/20 10:46:41;;;;;;;6.18;3.17;;;29.40;95.10;;;;;;4971932;28;20487;-68
2023/06/20 10:49:09;;;;;;;4.38;2.65;;;29.20;95.20;;;;;;4971734;28;20038;-68
2023/06/20 10:51:56;;;;;;;5.65;3.30;;;29.20;95.10;;;;;;4971407;28;20042;-68
2023/06/20 10:54:22;;;;;;;8.07;3.20;;;29.30;93.80;;;;;;4971778;28;20029;-68
2023/06/20 10:56:48;;;;;;;3.95;2.47;;;29.40;94.80;;;;;;4971508;28;20114;-68
2023/06/20 10:59:17;;;;;;;6.65;3.30;;;29.60;93.10;;;;;;4971909;28;20027;-68
2023/06/20 11:01:43;;;;;;;6.93;3.33;;;29.60;94.50;;;;;;4971292;28;20031;-68
2023/06/20 11:04:13;;;;;;;8.25;2.65;;;29.50;93.70;;;;;;4971888;28;20394;-68
2023/06/20 11:06:41;;;;;;;8.77;2.95;;;29.80;90.70;;;;;;4955815;28;20022;-68
2023/06/20 11:09:23;;;;;;;5.30;2.78;;;30.10;88.80;;;;;;4975778;28;20030;-68
2023/06/20 11:11:49;;;;;;;5.25;2.95;;;30.00;88.40;;;;;;4954725;28;20503;-68
2023/06/20 11:14:20;;;;;;;4.78;2.22;;;30.20;89.50;;;;;;4954844;29;20070;-68
2023/06/20 11:16:48;;;;;;;3.83;2.38;;;30.10;80.90;;;;;;4954901;29;20031;-68
2023/06/20 11:19:14;;;;;;;4.60;2.53;;;30.50;84.60;;;;;;4954964;29;20509;-68
2023/06/20 11:21:41;;;;;;;3.83;1.70;;;30.60;80.30;;;;;;4955725;28;20039;-68
2023/06/20 11:24:06;;;;;;;3.50;1.70;;;30.60;77.10;;;;;;4955730;29;20054;-68
2023/06/20 11:26:34;;;;;;;4.55;1.90;;;30.50;77.50;;;;;;4956028;29;20479;-69
2023/06/20 11:29:01;;;;;;;4.95;2.42;;;30.70;75.40;;;;;;4955692;29;20046;-69
2023/06/20 11:31:27;;;;;;;4.18;2.45;;;30.90;78.70;;;;;;4955435;29;20059;-69
2023/06/20 11:34:08;;;;;;;3.47;2.10;;;30.70;79.30;;;;;;4955446;28;20027;-69
2023/06/20 11:36:36;;;;;;;4.05;1.92;;;31.10;78.60;;;;;;4954434;29;20479;-69
2023/06/20 11:39:15;;;;;;;5.28;2.08;;;31.20;76.40;;;;;;4954534;29;20041;-69
2023/06/20 11:41:41;;;;;;;5.30;2.00;;;31.20;74.10;;;;;;4955274;28;20043;-69
2023/06/20 11:44:23;;;;;;;2.72;1.67;;;31.00;70.40;;;;;;4955462;29;20082;-69
2023/06/20 11:46:49;;;;;;;3.75;1.63;;;31.30;72.10;;;;;;4955559;29;20031;-69
2023/06/20 11:49:30;;;;;;;2.80;1.50;;;31.20;69.80;;;;;;4954200;29;20038;-69
2023/06/20 11:51:56;;;;;;;3.38;2.00;;;31.20;69.70;;;;;;4955362;28;20059;-69
2023/06/20 11:54:23;;;;;;;3.40;1.77;;;31.60;70.70;;;;;;4955401;29;20443;-68
2023/06/20 11:56:52;;;;;;;3.28;1.90;;;31.60;69.80;;;;;;4955666;29;20086;-68
2023/06/20 11:59:24;;;;;;;2.73;1.40;;;31.60;67.00;;;;;;4954056;29;20138;-68
2023/06/20 12:01:51;;;;;;;3.58;1.90;;;31.40;67.30;;;;;;4955000;28;20513;-69
2023/06/20 12:04:21;;;;;;;3.75;1.65;;;31.50;66.80;;;;;;4955284;29;20035;-68
2023/06/20 12:06:54;;;;;;;3.65;1.90;;;31.50;66.50;;;;;;4955286;29;20483;-68
2023/06/20 12:09:23;;;;;;;3.22;1.85;;;31.70;66.30;;;;;;4954080;29;20527;-68
2023/06/20 12:11:54;;;;;;;3.53;1.80;;;31.70;65.60;;;;;;4968199;28;20066;-68
2023/06/20 12:14:24;;;;;;;2.53;1.65;;;31.70;65.60;;;;;;4957530;28;20478;-69
2023/06/20 12:16:52;;;;;;;2.75;1.80;;;31.60;67.70;;;;;;4956943;28;20085;-68
2023/06/20 12:19:22;;;;;;;4.00;1.88;;;31.90;66.40;;;;;;4974190;28;20031;-69
2023/06/20 12:21:49;;;;;;;2.58;1.58;;;32.10;66.40;;;;;;4957281;28;20050;-69
2023/06/20 12:24:20;;;;;;;3.28;1.95;;;32.30;64.60;;;;;;4974070;28;20113;-69
2023/06/20 12:26:51;;;;;;;4.95;2.50;;;32.40;64.20;;;;;;4974155;28;20188;-68
2023/06/20 12:29:17;;;;;;;6.82;1.85;;;32.20;64.50;;;;;;4957478;28;20033;-69
2023/06/20 12:31:43;;;;;;;2.88;1.48;;;32.00;63.40;;;;;;4973516;28;20125;-69
2023/06/20 12:34:09;;;;;;;6.00;1.70;;;32.10;63.50;;;;;;4973876;28;20035;-69
2023/06/20 12:36:34;;;;;;;6.18;2.03;;;32.40;63.00;;;;;;4973858;28;20457;-69
2023/06/20 12:39:01;;;;;;;3.40;1.92;;;32.60;62.90;;;;;;4973824;28;20030;-69
2023/06/20 12:41:35;;;;;;;5.13;2.00;;;32.60;62.30;;;;;;4956642;28;20062;-69
2023/06/20 12:44:02;;;;;;;3.90;1.80;;;32.40;62.30;;;;;;4973879;28;20035;-69
2023/06/20 12:46:29;;;;;;;3.42;1.77;;;32.90;63.60;;;;;;4956733;28;20041;-70
2023/06/20 12:48:56;;;;;;;3.58;1.80;;;32.80;63.30;;;;;;4956422;28;20483;-69
2023/06/20 12:51:21;;;;;;;3.10;1.80;;;32.60;64.30;;;;;;4973294;28;20121;-70
2023/06/20 12:53:50;;;;;;;2.80;1.80;;;33.10;63.90;;;;;;4973551;28;20041;-69